createdAt,value
2022-08-20T00:00:47.731Z,101159.25
2022-08-20T00:03:14.865Z,101152.84
2022-08-20T00:05:42.666Z,101150.56
2022-08-20T00:08:08.538Z,101151.72
2022-08-20T00:10:35.449Z,101146.97
2022-08-20T00:13:01.214Z,101145.31
2022-08-20T00:15:28.375Z,101143.66
2022-08-20T00:17:54.120Z,101148.94
2022-08-20T00:20:20.934Z,101140.06
2022-08-20T00:22:46.635Z,101136.16
2022-08-20T00:25:12.398Z,101136.97
2022-08-20T00:27:37.945Z,101138.09
2022-08-20T00:30:06.208Z,101143.66
2022-08-20T00:32:31.810Z,101145.63
2022-08-20T00:34:57.382Z,101149.22
2022-08-20T00:37:22.925Z,101145.63
2022-08-20T00:39:48.530Z,101142.84
2022-08-20T00:42:14.100Z,101138.94
2022-08-20T00:44:46.603Z,101138.09
2022-08-20T00:47:12.148Z,101128.91
2022-08-20T00:49:37.747Z,101126.13
2022-08-20T00:52:08.392Z,101126.44
2022-08-20T00:54:43.131Z,101126.44
2022-08-20T00:57:11.065Z,101130.88
2022-08-20T00:59:38.357Z,101129.25
2022-08-20T01:02:04.717Z,101129.25
2022-08-20T01:04:32.757Z,101130.88
2022-08-20T01:06:58.479Z,101124.50
2022-08-20T01:09:49.905Z,101128.41
2022-08-20T01:12:09.564Z,101122.03
2022-08-20T01:17:16.696Z,101140.38
2022-08-20T01:20:02.120Z,101136.44
2022-08-20T01:22:49.978Z,101137.59
2022-08-20T01:25:19.978Z,101140.38
2022-08-20T01:27:45.529Z,101150.69
2022-08-20T01:30:11.837Z,101147.09
2022-08-20T01:32:37.378Z,101147.91
2022-08-20T01:35:03.442Z,101140.69
2022-08-20T01:37:31.540Z,101134.28
2022-08-20T01:39:57.576Z,101137.59
2022-08-20T01:42:25.772Z,101140.69
2022-08-20T01:44:52.016Z,101141.50
2022-08-20T01:47:22.897Z,101135.94
2022-08-20T01:49:50.548Z,101139.84
2022-08-20T01:52:33.439Z,101148.19
2022-08-20T01:54:58.977Z,101154.63
2022-08-20T01:57:25.951Z,101148.19
2022-08-20T01:59:51.652Z,101146.25
2022-08-20T02:02:17.242Z,101153.75
2022-08-20T02:04:42.779Z,101154.91
2022-08-20T02:07:11.841Z,101155.72
2022-08-20T02:09:38.376Z,101148.53
2022-08-20T02:12:05.600Z,101147.38
2022-08-20T02:14:31.891Z,101150.16
2022-08-20T02:16:57.693Z,101150.16
2022-08-20T02:19:39.740Z,101150.16
2022-08-20T02:22:08.821Z,101143.78
2022-08-20T02:24:34.629Z,101149.34
2022-08-20T02:27:00.259Z,101146.56
2022-08-20T02:29:25.897Z,101152.94
2022-08-20T02:32:32.211Z,101155.72
2022-08-20T02:34:37.129Z,101147.38
2022-08-20T02:37:03.644Z,101145.75
2022-08-20T02:39:29.191Z,101148.53
2022-08-20T02:41:54.728Z,101144.09
2022-08-20T02:44:20.588Z,101142.94
2022-08-20T02:46:48.641Z,101141.31
2022-08-20T02:49:14.190Z,101147.69
2022-08-20T02:51:39.739Z,101146.88
2022-08-20T02:54:05.276Z,101144.91
2022-08-20T02:56:30.813Z,101147.69
2022-08-20T02:58:56.360Z,101156.88
2022-08-20T03:01:22.036Z,101151.63
2022-08-20T03:03:47.588Z,101148.03
2022-08-20T03:06:13.480Z,101146.06
2022-08-20T03:08:39.586Z,101142.13
2022-08-20T03:11:05.209Z,101134.91
2022-08-20T03:13:30.752Z,101142.47
2022-08-20T03:15:59.096Z,101134.09
2022-08-20T03:18:25.757Z,101138.84
2022-08-20T03:20:51.422Z,101129.66
2022-08-20T03:23:18.385Z,101136.88
2022-08-20T03:25:44.448Z,101136.88
2022-08-20T03:28:10.197Z,101136.88
2022-08-20T03:30:35.960Z,101136.06
2022-08-20T03:33:01.752Z,101122.44
2022-08-20T03:35:27.731Z,101124.94
2022-08-20T03:37:53.364Z,101124.94
2022-08-20T03:40:22.662Z,101124.06
2022-08-20T03:42:48.206Z,101128.81
2022-08-20T03:45:17.246Z,101119.66
2022-08-20T03:47:45.498Z,101121.28
2022-08-20T03:50:20.561Z,101119.66
2022-08-20T03:52:49.284Z,101116.88
2022-08-20T03:55:14.821Z,101126.03
2022-08-20T03:57:44.766Z,101126.38
2022-08-20T04:00:12.349Z,101129.97
2022-08-20T04:02:37.900Z,101139.13
2022-08-20T04:05:03.543Z,101140.28
2022-08-20T04:07:29.093Z,101141.09
2022-08-20T04:09:54.864Z,101139.47
2022-08-20T04:12:21.613Z,101145.84
2022-08-20T04:14:47.404Z,101149.47
2022-08-20T04:17:13.337Z,101148.63
2022-08-20T04:19:39.673Z,101153.06
2022-08-20T04:22:05.389Z,101162.56
2022-08-20T04:24:32.632Z,101156.16
2022-08-20T04:26:58.512Z,101154.22
2022-08-20T04:29:25.121Z,101148.63
2022-08-20T04:31:57.865Z,101145.03
2022-08-20T04:34:23.401Z,101149.47
2022-08-20T04:36:48.940Z,101151.41
2022-08-20T04:39:14.573Z,101149.78
2022-08-20T04:41:40.759Z,101159.78
2022-08-20T04:44:06.296Z,101161.75
2022-08-20T04:46:32.295Z,101162.56
2022-08-20T04:48:57.864Z,101152.56
2022-08-20T04:51:23.611Z,101152.56
2022-08-20T04:53:53.765Z,101162.88
2022-08-20T04:56:22.677Z,101180.41
2022-08-20T04:58:50.367Z,101172.06
2022-08-20T05:01:16.012Z,101177.91
2022-08-20T05:03:41.832Z,101178.44
2022-08-20T05:06:08.060Z,101176.81
2022-08-20T05:08:34.837Z,101187.09
2022-08-20T05:11:15.527Z,101182.38
2022-08-20T05:13:46.680Z,101188.75
2022-08-20T05:16:12.256Z,101192.97
2022-08-20T05:18:37.789Z,101199.38
2022-08-20T05:21:05.161Z,101196.56
2022-08-20T05:23:31.241Z,101199.38
2022-08-20T05:25:57.008Z,101206.56
2022-08-20T05:28:23.466Z,101200.19
2022-08-20T05:30:49.621Z,101204.09
2022-08-20T05:33:17.059Z,101210.50
2022-08-20T05:35:42.617Z,101199.38
2022-08-20T05:38:10.792Z,101202.16
2022-08-20T05:40:36.379Z,101202.16
2022-08-20T05:43:03.640Z,101208.84
2022-08-20T05:45:29.423Z,101212.47
2022-08-20T05:47:56.396Z,101210.81
2022-08-20T05:50:23.484Z,101210.81
2022-08-20T05:52:49.268Z,101221.63
2022-08-20T05:55:15.238Z,101225.56
2022-08-20T05:57:40.777Z,101221.13
2022-08-20T06:00:07.429Z,101217.22
2022-08-20T06:02:52.870Z,101224.75
2022-08-20T06:05:18.948Z,101223.91
2022-08-20T06:07:44.765Z,101224.75
2022-08-20T06:10:10.422Z,101223.91
2022-08-20T06:12:36.660Z,101223.09
2022-08-20T06:15:02.828Z,101220.31
2022-08-20T06:17:28.752Z,101227.53
2022-08-20T06:20:06.603Z,101218.34
2022-08-20T06:22:33.268Z,101224.75
2022-08-20T06:24:58.861Z,101221.13
2022-08-20T06:27:25.300Z,101220.31
2022-08-20T06:29:50.831Z,101232.28
2022-08-20T06:32:16.615Z,101225.06
2022-08-20T06:34:49.809Z,101227.84
2022-08-20T06:37:19.013Z,101226.69
2022-08-20T06:39:44.581Z,101219.50
2022-08-20T06:42:10.145Z,101231.44
2022-08-20T06:44:36.097Z,101229.78
2022-08-20T06:47:03.032Z,101229.78
2022-08-20T06:49:28.568Z,101233.41
2022-08-20T06:52:01.329Z,101237.31
2022-08-20T06:54:28.609Z,101242.88
2022-08-20T06:56:55.017Z,101240.91
2022-08-20T06:59:20.563Z,101240.91
2022-08-20T07:01:46.171Z,101243.69
2022-08-20T07:04:11.779Z,101241.22
2022-08-20T07:06:37.330Z,101247.63
2022-08-20T07:09:02.867Z,101246.47
2022-08-20T07:11:28.952Z,101254.34
2022-08-20T07:13:55.762Z,101258.75
2022-08-20T07:16:21.314Z,101267.09
2022-08-20T07:18:46.853Z,101261.53
2022-08-20T07:21:12.409Z,101266.28
2022-08-20T07:23:37.944Z,101263.50
2022-08-20T07:26:03.487Z,101269.88
2022-08-20T07:28:30.032Z,101272.69
2022-08-20T07:31:15.845Z,101271.84
2022-08-20T07:33:41.688Z,101273.81
2022-08-20T07:36:07.259Z,101279.38
2022-08-20T07:38:33.084Z,101281.34
2022-08-20T07:41:00.269Z,101283.31
2022-08-20T07:43:26.723Z,101286.91
2022-08-20T07:45:55.372Z,101294.44
2022-08-20T07:48:31.151Z,101294.44
2022-08-20T07:50:58.584Z,101294.44
2022-08-20T07:53:24.359Z,101294.94
2022-08-20T07:55:58.799Z,101293.63
2022-08-20T07:58:27.580Z,101295.25
2022-08-20T08:00:58.901Z,101299.19
2022-08-20T08:03:40.736Z,101304.75
2022-08-20T08:06:11.040Z,101308.38
2022-08-20T08:08:39.956Z,101308.66
2022-08-20T08:11:06.020Z,101308.38
2022-08-20T08:13:32.853Z,101309.47
2022-08-20T08:16:00.557Z,101305.56
2022-08-20T08:18:31.326Z,101300.28
2022-08-20T08:20:57.400Z,101306.69
2022-08-20T08:23:31.506Z,101301.13
2022-08-20T08:25:58.439Z,101301.97
2022-08-20T08:28:24.409Z,101312.25
2022-08-20T08:30:49.948Z,101306.69
2022-08-20T08:33:31.516Z,101306.69
2022-08-20T08:35:59.130Z,101308.66
2022-08-20T08:38:25.120Z,101311.44
2022-08-20T08:40:53.873Z,101314.22
2022-08-20T08:43:26.381Z,101315.34
2022-08-20T08:45:59.044Z,101320.59
2022-08-20T08:48:27.964Z,101321.75
2022-08-20T08:50:56.585Z,101320.91
2022-08-20T08:53:24.860Z,101324.53
2022-08-20T08:55:50.413Z,101330.09
2022-08-20T08:58:17.005Z,101324.53
2022-08-20T09:00:47.350Z,101330.09
2022-08-20T09:03:30.646Z,101340.09
2022-08-20T09:05:58.890Z,101338.44
2022-08-20T09:08:26.840Z,101333.69
2022-08-20T09:10:52.380Z,101344.00
2022-08-20T09:13:18.387Z,101344.00
2022-08-20T09:15:43.925Z,101345.97
2022-08-20T09:18:09.469Z,101340.41
2022-08-20T09:20:35.004Z,101340.41
2022-08-20T09:23:00.553Z,101344.31
2022-08-20T09:25:26.092Z,101351.53
2022-08-20T09:27:51.645Z,101353.50
2022-08-20T09:30:17.283Z,101354.31
2022-08-20T09:32:44.044Z,101353.50
2022-08-20T09:35:09.821Z,101354.31
2022-08-20T09:37:37.643Z,101361.53
2022-08-20T09:40:04.296Z,101353.50
2022-08-20T09:42:32.000Z,101363.50
2022-08-20T09:44:57.657Z,101358.22
2022-08-20T09:47:23.385Z,101359.91
2022-08-20T09:49:48.929Z,101362.13
2022-08-20T09:52:38.885Z,101363.78
2022-08-20T09:55:09.180Z,101361.00
2022-08-20T09:57:39.883Z,101359.06
2022-08-20T10:00:07.984Z,101358.22
2022-08-20T10:02:33.526Z,101358.22
2022-08-20T10:04:59.073Z,101363.78
2022-08-20T10:07:24.929Z,101366.84
2022-08-20T10:09:50.562Z,101359.34
2022-08-20T10:12:16.109Z,101364.06
2022-08-20T10:14:41.677Z,101364.06
2022-08-20T10:17:07.220Z,101364.94
2022-08-20T10:19:32.763Z,101368.53
2022-08-20T10:21:58.308Z,101364.94
2022-08-20T10:24:23.938Z,101367.72
2022-08-20T10:26:49.523Z,101367.72
2022-08-20T10:29:15.248Z,101370.50
2022-08-20T10:31:40.795Z,101365.22
2022-08-20T10:34:06.388Z,101369.63
2022-08-20T10:36:31.938Z,101369.63
2022-08-20T10:38:57.476Z,101364.06
2022-08-20T10:41:23.013Z,101378.84
2022-08-20T10:43:48.549Z,101377.16
2022-08-20T10:46:14.094Z,101379.13
2022-08-20T10:48:39.631Z,101368.81
2022-08-20T10:51:05.240Z,101370.50
2022-08-20T10:53:30.783Z,101375.53
2022-08-20T10:55:57.020Z,101379.94
2022-08-20T10:58:23.982Z,101381.91
2022-08-20T11:00:49.957Z,101386.66
2022-08-20T11:03:15.512Z,101383.88
2022-08-20T11:05:41.047Z,101380.78
2022-08-20T11:08:06.589Z,101384.69
2022-08-20T11:10:33.191Z,101379.13
2022-08-20T11:12:59.128Z,101376.34
2022-08-20T11:15:24.722Z,101379.94
2022-08-20T11:17:50.263Z,101379.13
2022-08-20T11:20:16.976Z,101376.34
2022-08-20T11:22:42.523Z,101372.41
2022-08-20T11:25:08.536Z,101373.56
2022-08-20T11:27:36.082Z,101381.91
2022-08-20T11:30:01.901Z,101384.69
2022-08-20T11:32:27.534Z,101377.47
2022-08-20T11:34:53.068Z,101379.13
2022-08-20T11:37:19.200Z,101370.78
2022-08-20T11:39:44.795Z,101371.91
2022-08-20T11:42:10.444Z,101367.16
2022-08-20T11:44:35.977Z,101378.31
2022-08-20T11:47:02.780Z,101367.16
2022-08-20T11:49:29.958Z,101381.91
2022-08-20T11:51:55.497Z,101380.25
2022-08-20T11:54:21.028Z,101384.69
2022-08-20T11:56:46.602Z,101375.53
2022-08-20T11:59:12.477Z,101375.84
2022-08-20T12:01:38.015Z,101383.06
2022-08-20T12:04:03.552Z,101367.50
2022-08-20T12:06:30.155Z,101379.44
2022-08-20T12:08:55.691Z,101376.66
2022-08-20T12:11:21.237Z,101374.69
2022-08-20T12:13:48.991Z,101373.88
2022-08-20T12:16:15.429Z,101379.44
2022-08-20T12:18:40.978Z,101375.84
2022-08-20T12:21:06.519Z,101374.69
2022-08-20T12:23:32.055Z,101375.84
2022-08-20T12:26:01.836Z,101366.34
2022-08-20T12:28:27.481Z,101374.69
2022-08-20T12:30:53.012Z,101359.13
2022-08-20T12:33:18.557Z,101360.78
2022-08-20T12:35:44.096Z,101365.53
2022-08-20T12:38:09.632Z,101369.13
2022-08-20T12:40:35.334Z,101359.13
2022-08-20T12:43:01.526Z,101363.88
2022-08-20T12:45:27.236Z,101361.91
2022-08-20T12:47:52.786Z,101356.34
2022-08-20T12:50:20.549Z,101358.31
2022-08-20T12:52:47.348Z,101354.72
2022-08-20T12:55:13.681Z,101344.41
2022-08-20T12:57:42.434Z,101351.94
2022-08-20T13:00:12.444Z,101346.03
2022-08-20T13:02:38.018Z,101348.00
2022-08-20T13:05:05.553Z,101336.06
2022-08-20T13:07:31.273Z,101338.84
2022-08-20T13:09:57.332Z,101336.06
2022-08-20T13:12:22.873Z,101339.66
2022-08-20T13:14:48.428Z,101336.88
2022-08-20T13:17:15.232Z,101334.38
2022-08-20T13:19:44.092Z,101336.06
2022-08-20T13:22:09.741Z,101331.59
2022-08-20T13:24:35.273Z,101327.69
2022-08-20T13:27:05.014Z,101324.09
2022-08-20T13:29:30.553Z,101332.44
2022-08-20T13:31:56.100Z,101329.66
2022-08-20T13:34:21.637Z,101321.59
2022-08-20T13:36:47.186Z,101325.19
2022-08-20T13:39:12.725Z,101316.84
2022-08-20T13:41:38.274Z,101322.94
2022-08-20T13:44:03.816Z,101320.47
2022-08-20T13:46:29.368Z,101318.53
2022-08-20T13:48:54.908Z,101320.47
2022-08-20T13:51:21.688Z,101320.47
2022-08-20T13:53:47.327Z,101314.06
2022-08-20T13:56:12.941Z,101312.09
2022-08-20T13:58:38.720Z,101314.88
2022-08-20T14:01:04.316Z,101316.56
2022-08-20T14:03:29.889Z,101312.09
2022-08-20T14:05:56.060Z,101314.88
2022-08-20T14:08:22.401Z,101308.50
2022-08-20T14:10:50.406Z,101314.88
2022-08-20T14:13:17.752Z,101312.09
2022-08-20T14:15:44.037Z,101313.25
2022-08-20T14:18:09.558Z,101315.22
2022-08-20T14:20:35.107Z,101316.03
2022-08-20T14:23:04.301Z,101316.03
2022-08-20T14:25:30.490Z,101314.06
2022-08-20T14:27:56.042Z,101312.44
2022-08-20T14:30:22.898Z,101310.47
2022-08-20T14:32:48.640Z,101307.69
2022-08-20T14:35:14.271Z,101304.91
2022-08-20T14:37:41.050Z,101308.50
2022-08-20T14:40:08.732Z,101307.69
2022-08-20T14:42:34.542Z,101311.28
2022-08-20T14:45:01.399Z,101304.91
2022-08-20T14:47:28.018Z,101303.75
2022-08-20T14:49:54.041Z,101306.03
2022-08-20T14:52:20.089Z,101306.84
2022-08-20T14:54:46.212Z,101303.25
2022-08-20T14:57:13.526Z,101301.28
2022-08-20T14:59:39.260Z,101304.91
2022-08-20T15:02:05.420Z,101296.53
2022-08-20T15:04:31.598Z,101302.13
2022-08-20T15:06:57.144Z,101310.47
2022-08-20T15:09:33.625Z,101304.91
2022-08-20T15:11:59.176Z,101299.31
2022-08-20T15:14:24.921Z,101309.63
2022-08-20T15:16:53.533Z,101301.28
2022-08-20T15:19:19.169Z,101293.75
2022-08-20T15:21:45.818Z,101306.84
2022-08-20T15:24:15.572Z,101304.06
2022-08-20T15:26:44.829Z,101305.72
2022-08-20T15:29:10.367Z,101297.69
2022-08-20T15:31:36.716Z,101299.66
2022-08-20T15:34:02.251Z,101300.47
2022-08-20T15:36:27.908Z,101297.69
2022-08-20T15:38:53.450Z,101297.69
2022-08-20T15:41:18.993Z,101288.50
2022-08-20T15:43:44.532Z,101298.81
2022-08-20T15:46:10.074Z,101298.50
2022-08-20T15:48:44.593Z,101302.44
2022-08-20T15:54:05.793Z,101292.13
2022-08-20T15:56:48.836Z,101292.13
2022-08-20T15:59:34.255Z,101289.66
2022-08-20T16:02:12.006Z,101294.91
2022-08-20T16:04:45.682Z,101299.66
2022-08-20T16:07:13.949Z,101291.28
2022-08-20T16:09:59.424Z,101287.69
2022-08-20T16:12:33.213Z,101289.66
2022-08-20T16:15:01.987Z,101289.34
2022-08-20T16:17:30.129Z,101294.09
2022-08-20T16:19:58.925Z,101295.22
2022-08-20T16:22:26.541Z,101301.59
2022-08-20T16:24:52.082Z,101289.66
2022-08-20T16:27:23.071Z,101291.28
2022-08-20T16:30:08.555Z,101298.00
2022-08-20T16:32:42.513Z,101287.69
2022-08-20T16:35:29.668Z,101294.09
2022-08-20T16:37:58.862Z,101298.00
2022-08-20T16:40:27.001Z,101292.44
2022-08-20T16:42:53.505Z,101300.47
2022-08-20T16:45:20.522Z,101298.81
2022-08-20T16:47:46.083Z,101293.25
2022-08-20T16:50:20.907Z,101298.00
2022-08-20T16:52:46.455Z,101296.03
2022-08-20T16:55:12.125Z,101289.66
2022-08-20T16:57:37.675Z,101293.25
2022-08-20T17:00:12.610Z,101289.66
2022-08-20T17:02:55.261Z,101299.66
2022-08-20T17:05:21.670Z,101294.38
2022-08-20T17:07:50.109Z,101296.03
2022-08-20T17:10:19.699Z,101300.78
2022-08-20T17:12:46.206Z,101294.09
2022-08-20T17:15:20.613Z,101297.16
2022-08-20T17:17:46.474Z,101294.38
2022-08-20T17:20:19.914Z,101299.94
2022-08-20T17:22:48.605Z,101296.31
2022-08-20T17:25:15.770Z,101297.16
2022-08-20T17:27:41.335Z,101296.31
2022-08-20T17:30:20.302Z,101301.91
2022-08-20T17:32:47.929Z,101303.84
2022-08-20T17:35:26.065Z,101311.91
2022-08-20T17:37:52.009Z,101306.34
2022-08-20T17:40:24.126Z,101308.28
2022-08-20T17:42:50.901Z,101305.50
2022-08-20T17:45:24.655Z,101315.53
2022-08-20T17:47:50.244Z,101311.06
2022-08-20T17:50:16.990Z,101311.91
2022-08-20T17:52:51.247Z,101315.81
2022-08-20T17:55:17.070Z,101312.22
2022-08-20T17:57:45.195Z,101311.06
2022-08-20T18:00:13.835Z,101310.25
2022-08-20T18:02:39.370Z,101308.28
2022-08-20T18:05:06.241Z,101315.00
2022-08-20T18:07:34.647Z,101312.22
2022-08-20T18:10:03.409Z,101318.59
2022-08-20T18:12:33.988Z,101319.41
2022-08-20T18:15:09.083Z,101320.56
2022-08-20T18:17:54.519Z,101322.19
2022-08-20T18:20:23.529Z,101323.34
2022-08-20T18:22:51.620Z,101324.16
2022-08-20T18:25:37.118Z,101329.72
2022-08-20T18:28:05.690Z,101328.09
2022-08-20T18:30:32.261Z,101326.13
2022-08-20T18:33:03.307Z,101323.34
2022-08-20T18:35:45.786Z,101328.09
2022-08-20T18:38:27.159Z,101328.91
2022-08-20T18:40:55.211Z,101328.09
2022-08-20T18:43:29.539Z,101316.94
2022-08-20T18:45:55.091Z,101325.28
2022-08-20T18:48:21.387Z,101328.09
2022-08-20T18:50:49.739Z,101330.88
2022-08-20T18:53:16.797Z,101332.81
2022-08-20T18:55:45.055Z,101332.00
2022-08-20T18:58:12.628Z,101332.00
2022-08-20T19:00:42.177Z,101338.38
2022-08-20T19:05:55.566Z,101333.66
2022-08-20T19:08:22.883Z,101347.56
2022-08-20T19:11:08.322Z,101341.19
2022-08-20T19:13:45.260Z,101334.78
2022-08-20T19:16:14.079Z,101332.00
2022-08-20T19:18:46.101Z,101342.81
2022-08-20T19:21:16.014Z,101339.22
2022-08-20T19:23:46.174Z,101341.19
2022-08-20T19:26:24.904Z,101346.75
2022-08-20T19:28:53.368Z,101345.91
2022-08-20T19:31:20.862Z,101360.66
2022-08-20T19:33:46.484Z,101349.53
2022-08-20T19:36:13.892Z,101360.66
2022-08-20T19:38:43.853Z,101366.22
2022-08-20T19:41:11.643Z,101360.66
2022-08-20T19:43:41.033Z,101371.78
2022-08-20T19:46:06.582Z,101369.00
2022-08-20T19:48:37.567Z,101372.59
2022-08-20T19:51:05.777Z,101373.75
2022-08-20T19:53:32.173Z,101375.72
2022-08-20T19:55:58.608Z,101375.72
2022-08-20T19:58:26.294Z,101380.13
2022-08-20T20:00:53.167Z,101373.75
2022-08-20T20:03:24.465Z,101370.97
2022-08-20T20:05:51.701Z,101374.56
2022-08-20T20:08:17.469Z,101376.53
2022-08-20T20:10:43.361Z,101379.31
2022-08-20T20:13:10.401Z,101383.75
2022-08-20T20:15:36.545Z,101389.31
2022-08-20T20:18:02.086Z,101391.28
2022-08-20T20:20:28.981Z,101382.91
2022-08-20T20:22:56.113Z,101385.72
2022-08-20T20:25:23.103Z,101375.72
2022-08-20T20:27:49.880Z,101372.94
2022-08-20T20:30:19.787Z,101367.38
2022-08-20T20:32:46.808Z,101368.19
2022-08-20T20:35:21.069Z,101373.75
2022-08-20T20:37:54.929Z,101374.88
2022-08-20T20:40:23.269Z,101370.16
2022-08-20T20:42:57.236Z,101366.53
2022-08-20T20:45:22.927Z,101365.41
2022-08-20T20:47:50.308Z,101363.75
2022-08-20T20:50:25.073Z,101368.19
2022-08-20T20:52:53.721Z,101366.53
2022-08-20T20:57:55.648Z,101369.31
2022-08-20T21:00:23.762Z,101367.38
2022-08-20T21:02:49.292Z,101365.72
2022-08-20T21:05:16.965Z,101366.53
2022-08-20T21:07:44.432Z,101367.38
2022-08-20T21:10:09.965Z,101370.16
2022-08-20T21:12:35.517Z,101369.31
2022-08-20T21:15:01.062Z,101370.16
2022-08-20T21:17:26.637Z,101371.28
2022-08-20T21:19:52.167Z,101368.50
2022-08-20T21:22:17.943Z,101369.31
2022-08-20T21:24:44.729Z,101366.53
2022-08-20T21:27:12.413Z,101372.09
2022-08-20T21:29:38.154Z,101378.78
2022-08-20T21:32:03.781Z,101379.63
2022-08-20T21:34:29.390Z,101383.25
2022-08-20T21:36:55.036Z,101382.41
2022-08-20T21:39:22.711Z,101378.78
2022-08-20T21:41:48.255Z,101383.25
2022-08-20T21:44:18.392Z,101380.47
2022-08-20T21:46:46.904Z,101385.19
2022-08-20T21:49:12.609Z,101381.56
2022-08-20T21:51:38.162Z,101384.34
2022-08-20T21:54:03.692Z,101377.97
2022-08-20T21:56:29.258Z,101380.47
2022-08-20T21:58:57.612Z,101378.78
2022-08-20T22:01:23.212Z,101381.56
2022-08-20T22:03:49.614Z,101387.13
2022-08-20T22:06:17.718Z,101383.53
2022-08-20T22:08:43.253Z,101384.34
2022-08-20T22:11:09.211Z,101386.03
2022-08-20T22:13:35.023Z,101380.75
2022-08-20T22:16:02.336Z,101381.56
2022-08-20T22:18:27.903Z,101387.13
2022-08-20T22:20:53.451Z,101381.56
2022-08-20T22:23:18.988Z,101380.75
2022-08-20T22:25:44.535Z,101381.56
2022-08-20T22:28:10.073Z,101378.78
2022-08-20T22:30:38.400Z,101381.56
2022-08-20T22:33:09.691Z,101381.56
2022-08-20T22:35:35.238Z,101382.41
2022-08-20T22:38:00.778Z,101377.97
2022-08-20T22:40:26.324Z,101381.56
2022-08-20T22:42:52.007Z,101377.13
2022-08-20T22:45:17.667Z,101381.56
2022-08-20T22:47:43.198Z,101387.13
2022-08-20T22:50:09.307Z,101376.00
2022-08-20T22:52:35.172Z,101380.75
2022-08-20T22:55:00.759Z,101382.41
2022-08-20T22:57:31.669Z,101377.97
2022-08-20T23:00:00.030Z,101377.97
2022-08-20T23:02:25.571Z,101377.13
2022-08-20T23:04:51.593Z,101379.91
2022-08-20T23:07:17.292Z,101382.69
2022-08-20T23:09:42.852Z,101380.75
2022-08-20T23:12:08.540Z,101383.53
2022-08-20T23:14:34.086Z,101371.56
2022-08-20T23:17:01.459Z,101367.66
2022-08-20T23:19:26.998Z,101377.97
2022-08-20T23:21:52.632Z,101360.44
2022-08-20T23:24:18.602Z,101365.19
2022-08-20T23:26:53.123Z,101366.00
2022-08-20T23:29:22.505Z,101367.13
2022-08-20T23:31:51.230Z,101366.00
2022-08-20T23:34:16.781Z,101362.41
2022-08-20T23:36:42.326Z,101363.22
2022-08-20T23:39:08.359Z,101356.84
2022-08-20T23:41:34.002Z,101352.41
2022-08-20T23:43:59.555Z,101349.31
2022-08-20T23:46:25.470Z,101349.63
2022-08-20T23:48:52.130Z,101345.69
2022-08-20T23:51:17.755Z,101350.44
2022-08-20T23:53:43.298Z,101350.13
2022-08-20T23:56:08.845Z,101347.66
2022-08-20T23:58:34.406Z,101342.91
